Strona główna
METAR-TAF:

METAR-TAF

Lotnisko :

Preston, Anglia

Szerokość geograficzna: 53-44-42N, Długość geograficzna: 2-53-02W, wysokość: 17 m

METAR: brakujący

czas: 03:53 (03:53 UTC)

Prognoza

Raport powstał 13 godziny i 56 minut temu, godzina 13:57 UTC
Prognoza ważna od 22 godzina 15 UTC do 22 godzina 24 UTC
Wiatr 11 kt od zachód
Widzialność 10 km lub więcej
Rozproszone chmury na wysokości 2500 ft
Prawdopodobieństwo 30% :
Przejściowo
od 22 godzina 15 UTC do 22 godzina 17 UTC
Widzialność: 3000 m
Przerywane chmury na wysokości 1000 ft
przelotny opad deszczu, śnieg
Przejściowo
od 22 godzina 17 UTC do 22 godzina 24 UTC
Widzialność: 3000 m
Przerywane chmury na wysokości 1000 ft
przelotny opad deszczu, śnieg

TAF: EGNO 221357Z 2215/2224 28011KT 9999 SCT025 PROB30 TEMPO 2215/2217 3000 SHRASN BKN010 TEMPO 2217/2224 3000 SHRASN BKN010

Obserwacja i prognoza pogody dla ponad 4000 lotnisk (raport METAR i TAF).

Dostępne stacje oznaczono żółtymi i czerwonymi punktami na mapie.

Najedź kursorem aby zobaczyć nazwę stacji.

Kliknij aby zobaczyć obserwacje i prognozy pogody.

Aby zmienić mapę: kliknij na zielony przycisk z czarnym krzyżykiem, aby powiększyć; na zielony przycisk z myślnikiem, aby pomniejszyć; na zielone strzałki, aby przejść do map sąsiednich.


METAR-TAF: